Time;durP1;ratioP1;P1;durP2;ratioP2;P2;SDS_P1;SDS_P2;PMS_P1;PMS_P2;Temp;Humidity;BMP_temperature;BMP_pressure;BME280_temperature;BME280_humidity;BME280_pressure;Samples;Min_cycle;Max_cycle;Signal;HPM_P1;HPM_P2
2023/02/16 00:01:26;;;;;;;118.70;51.50;;;;;;;-1.04;83.33;101160.34;106650;1281;25427;-60
2023/02/16 00:03:58;;;;;;;128.60;53.90;;;;;;;-1.04;83.09;101161.52;106482;1281;24313;-59
2023/02/16 00:06:29;;;;;;;123.40;50.10;;;;;;;-1.04;82.96;101165.10;106537;1280;26122;-58
2023/02/16 00:09:00;;;;;;;128.90;52.90;;;;;;;-1.08;83.01;101165.94;106604;1258;22557;-59
2023/02/16 00:14:28;;;;;;;131.70;56.80;;;;;;;-1.16;83.10;101157.95;106645;1274;25473;-59
2023/02/16 00:17:00;;;;;;;128.80;51.90;;;;;;;-1.19;83.12;101162.55;106570;1279;24316;-58
2023/02/16 00:19:34;;;;;;;123.30;54.00;;;;;;;-1.23;82.87;101165.32;106705;1264;22536;-58
2023/02/16 00:22:07;;;;;;;121.80;51.00;;;;;;;-1.28;82.87;101167.84;106628;1279;25011;-59
2023/02/16 00:24:38;;;;;;;123.70;53.20;;;;;;;-1.32;83.20;101170.08;106772;1279;24251;-59
2023/02/16 00:27:17;;;;;;;116.60;50.40;;;;;;;-1.35;83.24;101172.87;106609;1279;26060;-58
2023/02/16 00:29:48;;;;;;;128.30;51.40;;;;;;;-1.35;83.49;101173.66;106741;1279;24278;-59
2023/02/16 00:32:18;;;;;;;125.10;53.10;;;;;;;-1.36;83.28;101173.40;106597;1273;24090;-58
2023/02/16 00:34:49;;;;;;;125.20;52.00;;;;;;;-1.39;82.96;101174.15;106595;1274;22566;-59
2023/02/16 00:37:20;;;;;;;129.10;52.40;;;;;;;-1.43;83.16;101172.08;106772;1272;24257;-60
2023/02/16 00:39:51;;;;;;;123.50;51.80;;;;;;;-1.45;83.29;101169.17;106696;1279;22622;-59
2023/02/16 00:42:26;;;;;;;126.70;53.60;;;;;;;-1.45;83.34;101162.91;106614;1277;24272;-58
2023/02/16 00:44:58;;;;;;;119.80;51.50;;;;;;;-1.43;83.32;101170.21;106712;1274;25375;-59
2023/02/16 00:47:34;;;;;;;117.50;52.10;;;;;;;-1.42;83.30;101163.19;106651;1276;22566;-61
2023/02/16 00:50:07;;;;;;;117.50;51.10;;;;;;;-1.42;83.11;101168.33;106728;1279;24266;-60
2023/02/16 00:52:41;;;;;;;115.80;50.60;;;;;;;-1.46;82.88;101171.74;106663;1276;25264;-58
2023/02/16 00:55:15;;;;;;;118.10;50.50;;;;;;;-1.55;82.95;101169.68;106584;1264;25509;-59
2023/02/16 00:57:50;;;;;;;125.10;53.40;;;;;;;-1.58;83.12;101166.54;106560;1279;24404;-59
2023/02/16 01:00:27;;;;;;;109.40;50.50;;;;;;;-1.59;83.26;101168.06;106306;1271;22534;-58
2023/02/16 01:03:00;;;;;;;112.20;48.80;;;;;;;-1.58;83.34;101163.31;106056;1267;24500;-59
2023/02/16 01:05:31;;;;;;;115.80;48.30;;;;;;;-1.57;83.31;101157.14;106084;1279;22544;-58
2023/02/16 01:11:11;;;;;;;115.20;48.50;;;;;;;-1.58;83.19;101162.23;106113;1279;23035;-57
2023/02/16 01:13:46;;;;;;;134.60;54.80;;;;;;;-1.58;83.44;101154.70;106210;1276;22597;-59
2023/02/16 01:16:20;;;;;;;128.00;51.90;;;;;;;-1.59;83.20;101155.48;106305;1278;24503;-58
2023/02/16 01:18:52;;;;;;;123.00;53.60;;;;;;;-1.61;83.27;101155.21;106231;1279;22662;-56
2023/02/16 01:21:23;;;;;;;131.50;54.80;;;;;;;-1.65;83.37;101151.98;106178;1277;24394;-59
2023/02/16 01:23:54;;;;;;;127.60;55.30;;;;;;;-1.65;83.38;101153.46;106102;1274;22635;-58
2023/02/16 01:26:25;;;;;;;129.50;59.20;;;;;;;-1.64;83.39;101152.70;106082;1267;24288;-59
2023/02/16 01:28:56;;;;;;;124.40;57.00;;;;;;;-1.64;83.50;101148.63;106195;1277;22544;-58
2023/02/16 01:31:28;;;;;;;117.80;55.40;;;;;;;-1.67;83.34;101148.21;106087;1271;24315;-59
2023/02/16 01:33:58;;;;;;;130.40;55.90;;;;;;;-1.72;83.17;101152.98;106208;1279;24223;-59
2023/02/16 01:36:32;;;;;;;129.00;56.40;;;;;;;-1.76;83.35;101153.33;106108;1279;22544;-55
2023/02/16 01:39:04;;;;;;;134.30;59.80;;;;;;;-1.80;83.39;101145.09;106218;1276;22743;-58
2023/02/16 01:41:54;;;;;;;130.30;57.30;;;;;;;-1.82;83.24;101143.17;106174;1276;23439;-57
2023/02/16 01:44:29;;;;;;;135.70;59.90;;;;;;;-1.88;83.10;101141.69;106086;1260;24243;-58
2023/02/16 01:47:05;;;;;;;130.70;59.50;;;;;;;-1.95;83.03;101138.27;106130;1279;22553;-58
2023/02/16 01:49:36;;;;;;;132.50;58.50;;;;;;;-2.00;83.16;101139.21;106134;1274;26340;-59
2023/02/16 01:52:19;;;;;;;133.50;61.40;;;;;;;-2.06;83.21;101134.52;106093;1274;22611;-59
2023/02/16 01:54:56;;;;;;;129.90;58.00;;;;;;;-2.06;83.54;101133.66;106092;1279;24224;-58
2023/02/16 01:57:37;;;;;;;132.70;59.70;;;;;;;-2.05;83.69;101123.43;106391;1267;24319;-59
2023/02/16 02:00:22;;;;;;;132.20;58.80;;;;;;;-2.07;83.48;101118.64;106101;1267;22563;-57
2023/02/16 02:05:33;;;;;;;133.10;63.10;;;;;;;-2.08;83.57;101112.67;106163;1279;22610;-58
2023/02/16 02:05:46;;;;;;;142.10;65.40;;;;;;;-2.10;83.52;101113.38;106111;1279;24396;-57
2023/02/16 02:08:27;;;;;;;152.00;67.10;;;;;;;-2.12;83.56;101108.41;106086;1279;22597;-58
2023/02/16 02:11:07;;;;;;;142.60;58.20;;;;;;;-2.15;83.58;101106.42;106169;1279;22541;-57
2023/02/16 02:13:44;;;;;;;144.30;64.30;;;;;;;-2.16;83.72;101102.81;106122;1273;24404;-58
2023/02/16 02:16:19;;;;;;;157.90;67.20;;;;;;;-2.21;83.39;101107.84;106098;1257;25125;-57
2023/02/16 02:18:50;;;;;;;159.00;67.20;;;;;;;-2.27;83.36;101101.89;106101;1279;22814;-57
2023/02/16 02:25:04;;;;;;;145.40;62.50;;;;;;;-2.30;83.86;101086.45;106101;1279;22653;-59
2023/02/16 02:27:38;;;;;;;146.70;62.50;;;;;;;-2.31;83.80;101085.52;106223;1264;22691;-59
2023/02/16 02:30:32;;;;;;;148.10;65.50;;;;;;;-2.29;83.81;101083.42;106155;1277;22567;-59
2023/02/16 02:33:24;;;;;;;154.30;67.80;;;;;;;-2.32;83.51;101086.98;105934;1274;201408;-56
2023/02/16 02:36:08;;;;;;;140.80;59.70;;;;;;;-2.39;83.21;101093.46;106215;1264;24352;-59
2023/02/16 02:38:49;;;;;;;144.20;62.10;;;;;;;-2.41;83.56;101095.69;106054;1267;23164;-58
2023/02/16 02:42:02;;;;;;;143.40;63.90;;;;;;;-2.45;83.58;101092.29;106196;1279;22718;-58
2023/02/16 02:44:22;;;;;;;148.10;61.90;;;;;;;-2.48;83.45;101096.00;106066;1267;22697;-58
2023/02/16 02:46:54;;;;;;;137.60;59.70;;;;;;;-2.51;83.51;101097.69;106151;1264;22630;-59
2023/02/16 02:49:25;;;;;;;135.80;58.70;;;;;;;-2.56;83.26;101097.08;106117;1271;23023;-58
2023/02/16 02:51:56;;;;;;;148.70;61.80;;;;;;;-2.57;83.58;101096.73;106196;1270;22613;-59
2023/02/16 03:03:11;;;;;;;143.70;64.50;;;;;;;-2.62;83.80;101095.81;105950;1262;22820;-59
2023/02/16 03:05:45;;;;;;;140.00;60.20;;;;;;;-2.60;84.05;101092.55;105813;1277;25568;-58
2023/02/16 03:08:20;;;;;;;141.90;62.80;;;;;;;-2.58;84.03;101086.73;105890;1277;23355;-59
2023/02/16 03:13:48;;;;;;;128.70;55.30;;;;;;;-2.59;83.78;101092.73;105802;1277;24293;-59
2023/02/16 03:16:27;;;;;;;135.30;60.90;;;;;;;-2.60;83.87;101088.65;105889;1283;24409;-58
2023/02/16 03:30:19;;;;;;;133.30;55.10;;;;;;;-2.77;83.91;101079.42;105825;1283;22596;-59
2023/02/16 03:32:51;;;;;;;134.70;59.20;;;;;;;-2.78;84.13;101082.63;105816;1277;24404;-60
2023/02/16 03:35:22;;;;;;;152.10;67.50;;;;;;;-2.80;83.93;101078.86;106092;1279;24246;-57
2023/02/16 03:37:53;;;;;;;146.30;64.80;;;;;;;-2.82;84.02;101070.45;106135;1261;22612;-58
2023/02/16 03:40:32;;;;;;;150.50;67.40;;;;;;;-2.85;83.89;101075.87;106204;1265;22716;-57
2023/02/16 03:43:06;;;;;;;145.10;61.00;;;;;;;-2.90;83.94;101070.20;106260;1279;25515;-58
2023/02/16 03:45:41;;;;;;;142.30;62.20;;;;;;;-2.88;84.15;101073.58;106166;1279;25637;-59
2023/02/16 03:48:12;;;;;;;144.20;62.80;;;;;;;-2.88;84.23;101072.88;106047;1276;22591;-59
2023/02/16 03:50:43;;;;;;;148.80;60.60;;;;;;;-2.89;84.14;101080.66;106043;1277;22599;-59
2023/02/16 03:53:14;;;;;;;145.20;61.70;;;;;;;-2.90;83.98;101078.93;106077;1277;25540;-60
2023/02/16 03:55:47;;;;;;;135.20;60.50;;;;;;;-2.91;84.08;101077.27;106030;1276;22643;-59
2023/02/16 03:58:20;;;;;;;148.30;59.90;;;;;;;-2.92;84.15;101079.53;106085;1279;22775;-59
2023/02/16 04:00:52;;;;;;;138.90;58.40;;;;;;;-2.93;83.93;101083.27;106157;1271;24014;-56
2023/02/16 04:03:23;;;;;;;126.80;55.70;;;;;;;-2.96;84.00;101080.71;106202;1274;25606;-57
2023/02/16 04:05:55;;;;;;;132.40;54.80;;;;;;;-2.96;84.22;101078.69;106200;1260;25565;-58
2023/02/16 04:08:26;;;;;;;119.40;54.10;;;;;;;-2.95;84.20;101073.69;106178;1273;25523;-58
2023/02/16 04:10:57;;;;;;;127.90;56.80;;;;;;;-2.97;84.32;101073.59;106059;1271;23023;-58
2023/02/16 04:13:28;;;;;;;128.80;53.40;;;;;;;-2.94;84.43;101077.78;106062;1279;23257;-58
2023/02/16 04:15:59;;;;;;;127.30;53.50;;;;;;;-2.96;84.46;101076.11;106070;1270;24393;-59
2023/02/16 04:18:30;;;;;;;122.60;51.50;;;;;;;-2.98;84.31;101075.13;106065;1277;24475;-57
2023/02/16 04:21:00;;;;;;;121.00;51.30;;;;;;;-3.00;84.37;101072.13;106096;1268;24228;-58
2023/02/16 04:23:32;;;;;;;117.80;50.50;;;;;;;-3.03;84.25;101069.98;106053;1279;26231;-57
2023/02/16 04:26:03;;;;;;;119.50;50.80;;;;;;;-3.07;84.26;101072.89;106066;1279;22725;-60
2023/02/16 04:28:33;;;;;;;122.90;51.30;;;;;;;-3.12;84.25;101072.91;106087;1278;27813;-59
2023/02/16 04:31:04;;;;;;;116.40;49.70;;;;;;;-3.14;84.52;101069.59;106095;1279;22605;-58
2023/02/16 04:33:36;;;;;;;112.30;47.80;;;;;;;-3.13;84.60;101069.38;106068;1279;22718;-58
2023/02/16 04:36:08;;;;;;;124.90;52.60;;;;;;;-3.13;84.67;101070.15;106086;1274;24354;-58
2023/02/16 04:38:39;;;;;;;116.40;46.70;;;;;;;-3.12;84.63;101071.02;106233;1279;22749;-58
2023/02/16 04:41:10;;;;;;;131.40;53.10;;;;;;;-3.14;84.41;101078.48;106055;1267;24297;-58
2023/02/16 04:43:41;;;;;;;142.30;54.60;;;;;;;-3.14;85.41;101083.77;106042;1264;22582;-59
2023/02/16 04:46:12;;;;;;;127.60;55.30;;;;;;;-3.14;85.57;101077.61;106076;1270;24387;-56
2023/02/16 04:48:43;;;;;;;129.80;51.30;;;;;;;-3.16;85.16;101082.58;106065;1274;24246;-57
2023/02/16 04:51:14;;;;;;;126.20;50.50;;;;;;;-3.15;85.36;101086.17;106107;1270;24267;-59
2023/02/16 04:53:44;;;;;;;117.70;51.10;;;;;;;-3.16;85.20;101079.23;106101;1268;27065;-58
2023/02/16 04:56:16;;;;;;;111.20;49.00;;;;;;;-3.14;85.26;101072.85;106110;1279;26926;-58
2023/02/16 04:58:47;;;;;;;122.20;53.80;;;;;;;-3.11;85.38;101068.92;106204;1276;23967;-57
2023/02/16 05:01:23;;;;;;;126.60;52.40;;;;;;;-3.10;85.28;101063.80;106142;1279;24431;-59
2023/02/16 05:03:54;;;;;;;118.50;50.30;;;;;;;-3.08;85.12;101062.82;106290;1274;22645;-59
2023/02/16 05:06:25;;;;;;;123.40;51.90;;;;;;;-3.08;85.13;101066.48;106385;1279;22590;-58
2023/02/16 05:08:56;;;;;;;114.90;48.80;;;;;;;-3.07;85.22;101067.27;106394;1273;22628;-58
2023/02/16 05:17:10;;;;;;;124.30;52.60;;;;;;;-3.00;85.37;101054.11;106078;1274;25504;-57
2023/02/16 05:19:43;;;;;;;127.70;52.90;;;;;;;-3.00;85.26;101050.14;106155;1274;22611;-58
2023/02/16 05:22:14;;;;;;;127.80;50.90;;;;;;;-3.00;85.37;101051.07;106159;1256;24532;-57
2023/02/16 05:24:45;;;;;;;121.50;51.00;;;;;;;-3.00;85.24;101051.07;106128;1274;25541;-58
2023/02/16 05:27:19;;;;;;;138.30;54.30;;;;;;;-3.01;85.19;101048.17;106087;1277;22584;-59
2023/02/16 05:29:50;;;;;;;130.00;54.50;;;;;;;-3.02;85.00;101049.56;107541;1273;25517;-57
2023/02/16 05:32:22;;;;;;;122.20;52.30;;;;;;;-3.05;85.02;101051.00;106144;1267;22644;-58
2023/02/16 05:34:53;;;;;;;125.60;47.90;;;;;;;-3.06;85.06;101050.75;106043;1277;22593;-59
2023/02/16 05:37:24;;;;;;;119.40;50.10;;;;;;;-3.10;85.06;101052.09;106139;1271;22562;-58
2023/02/16 05:39:55;;;;;;;118.30;50.10;;;;;;;-3.14;84.96;101054.67;106248;1273;23169;-58
2023/02/16 05:42:25;;;;;;;118.60;51.20;;;;;;;-3.17;85.05;101056.52;106126;1277;24405;-59
2023/02/16 05:44:56;;;;;;;127.20;52.70;;;;;;;-3.18;85.09;101062.18;106084;1276;22596;-58
2023/02/16 05:47:27;;;;;;;123.50;52.60;;;;;;;-3.18;85.21;101063.52;106136;1279;22575;-58
2023/02/16 05:49:58;;;;;;;128.40;50.20;;;;;;;-3.17;85.27;101061.50;106209;1277;22821;-60
2023/02/16 05:52:29;;;;;;;127.70;51.10;;;;;;;-3.16;85.12;101060.10;106078;1279;24425;-62
2023/02/16 05:55:00;;;;;;;125.40;50.30;;;;;;;-3.20;84.90;101067.94;106131;1279;24427;-62
2023/02/16 05:57:33;;;;;;;119.70;50.20;;;;;;;-3.21;85.10;101070.25;106138;1272;22580;-62
2023/02/16 06:00:07;;;;;;;126.10;51.40;;;;;;;-3.21;85.13;101070.48;106254;1276;23022;-62
2023/02/16 06:02:38;;;;;;;120.50;50.20;;;;;;;-3.21;85.16;101069.33;106465;1274;24270;-63
2023/02/16 06:05:10;;;;;;;126.50;50.50;;;;;;;-3.20;85.29;101070.98;106150;1276;24208;-62
2023/02/16 06:07:40;;;;;;;113.80;48.10;;;;;;;-3.19;85.19;101082.15;106242;1276;25556;-61
2023/02/16 06:10:15;;;;;;;115.00;51.00;;;;;;;-3.21;85.22;101081.25;106175;1279;24289;-62
2023/02/16 06:12:46;;;;;;;120.70;51.60;;;;;;;-3.22;85.65;101082.09;106304;1279;24308;-62
2023/02/16 06:15:17;;;;;;;124.30;53.20;;;;;;;-3.22;85.64;101082.41;106222;1279;22627;-62
2023/02/16 06:17:48;;;;;;;125.40;50.10;;;;;;;-3.23;85.59;101083.73;106505;1279;22557;-62
2023/02/16 06:20:22;;;;;;;126.90;50.50;;;;;;;-3.23;85.61;101091.36;106115;1279;22564;-62
2023/02/16 06:22:53;;;;;;;119.80;52.60;;;;;;;-3.23;85.53;101094.34;106174;1264;23167;-63
2023/02/16 06:25:24;;;;;;;122.90;52.70;;;;;;;-3.22;85.66;101094.41;106111;1279;24390;-63
2023/02/16 06:27:55;;;;;;;129.20;52.90;;;;;;;-3.22;85.55;101091.54;106157;1279;22606;-63
2023/02/16 06:30:27;;;;;;;122.90;50.80;;;;;;;-3.22;85.59;101094.59;106394;1271;24357;-63
2023/02/16 06:32:58;;;;;;;127.60;52.10;;;;;;;-3.21;85.77;101091.00;106329;1277;22671;-63
2023/02/16 06:35:29;;;;;;;126.30;52.80;;;;;;;-3.22;85.73;101092.32;106109;1271;23478;-63
2023/02/16 06:38:00;;;;;;;127.20;51.10;;;;;;;-3.22;85.77;101094.56;106154;1272;22576;-62
2023/02/16 06:40:32;;;;;;;123.70;52.50;;;;;;;-3.21;85.85;101093.10;106527;1265;22570;-62
2023/02/16 06:43:02;;;;;;;125.70;52.30;;;;;;;-3.19;86.11;101092.66;106483;1279;26253;-62
2023/02/16 06:45:33;;;;;;;119.60;51.60;;;;;;;-3.17;86.21;101089.36;106077;1273;24279;-64
2023/02/16 06:48:05;;;;;;;129.50;55.50;;;;;;;-3.16;86.27;101092.02;106210;1272;22557;-62
2023/02/16 06:50:36;;;;;;;128.70;53.00;;;;;;;-3.15;86.33;101093.05;106591;1277;22559;-62
2023/02/16 06:53:07;;;;;;;151.10;55.70;;;;;;;-3.16;86.47;101089.70;106173;1272;25539;-62
2023/02/16 06:55:38;;;;;;;130.40;53.20;;;;;;;-3.13;86.42;101087.80;106497;1275;25509;-62
2023/02/16 06:58:09;;;;;;;130.10;53.30;;;;;;;-3.11;86.55;101089.23;106119;1265;24277;-62
2023/02/16 07:00:40;;;;;;;131.70;56.70;;;;;;;-3.06;86.77;101089.29;106157;1279;24369;-57
2023/02/16 07:03:11;;;;;;;140.30;54.30;;;;;;;-3.02;86.83;101091.39;106128;1278;22732;-54
2023/02/16 07:05:42;;;;;;;127.20;53.90;;;;;;;-2.97;87.15;101090.36;106247;1274;25449;-57
2023/02/16 07:08:13;;;;;;;130.80;53.80;;;;;;;-2.93;86.99;101088.64;106319;1277;25261;-58
2023/02/16 07:10:46;;;;;;;138.60;54.90;;;;;;;-2.89;87.26;101089.25;106270;1271;22574;-57
2023/02/16 07:13:17;;;;;;;130.10;50.80;;;;;;;-2.84;87.47;101092.36;106398;1279;23046;-58
2023/02/16 07:15:48;;;;;;;117.50;54.20;;;;;;;-2.81;87.71;101095.61;106335;1274;24468;-56
2023/02/16 07:18:19;;;;;;;123.50;52.50;;;;;;;-2.76;87.77;101093.42;106139;1274;24532;-58
2023/02/16 07:20:50;;;;;;;128.50;53.60;;;;;;;-2.71;87.87;101096.09;106141;1279;25742;-55
2023/02/16 07:23:21;;;;;;;132.70;56.90;;;;;;;-2.66;87.84;101094.74;106182;1273;22715;-58
2023/02/16 07:25:53;;;;;;;126.10;54.60;;;;;;;-2.62;87.98;101092.91;106193;1274;22583;-57
2023/02/16 07:28:24;;;;;;;135.00;56.30;;;;;;;-2.56;88.15;101094.64;106101;1271;22739;-56
2023/02/16 07:30:55;;;;;;;129.80;57.10;;;;;;;-2.52;88.38;101094.47;106195;1257;23137;-57
2023/02/16 07:33:26;;;;;;;146.40;58.90;;;;;;;-2.47;88.56;101090.86;106158;1267;24276;-59
2023/02/16 07:35:57;;;;;;;149.00;64.10;;;;;;;-2.40;88.69;101091.81;106065;1277;22590;-60
2023/02/16 07:38:29;;;;;;;157.00;67.90;;;;;;;-2.34;88.87;101085.80;106131;1272;22645;-61
2023/02/16 07:41:00;;;;;;;171.60;69.50;;;;;;;-2.29;89.02;101083.52;106041;1276;22792;-58
2023/02/16 07:43:31;;;;;;;174.10;75.10;;;;;;;-2.24;89.31;101083.58;106185;1264;22692;-58
2023/02/16 07:46:02;;;;;;;171.50;76.30;;;;;;;-2.18;89.39;101089.60;106149;1272;24274;-59
2023/02/16 07:48:33;;;;;;;177.80;75.90;;;;;;;-2.11;89.56;101087.73;106303;1279;25557;-56
2023/02/16 07:51:10;;;;;;;172.70;72.40;;;;;;;-2.04;89.67;101090.21;106372;1277;24799;-61
2023/02/16 07:53:45;;;;;;;169.00;68.40;;;;;;;-1.98;89.68;101089.91;106897;1263;22662;-59
2023/02/16 07:56:26;;;;;;;158.60;68.30;;;;;;;-1.91;89.69;101087.48;107525;1273;24165;-58
2023/02/16 07:59:02;;;;;;;153.70;64.50;;;;;;;-1.84;89.87;101086.99;106824;1267;22593;-60
2023/02/16 08:01:41;;;;;;;156.20;67.20;;;;;;;-1.76;89.96;101086.70;106533;1258;22595;-59
2023/02/16 08:04:15;;;;;;;150.80;63.50;;;;;;;-1.68;90.12;101086.16;106722;1278;22566;-58
2023/02/16 08:07:03;;;;;;;136.40;60.50;;;;;;;-1.60;90.23;101085.46;106615;1273;22699;-55
2023/02/16 08:10:01;;;;;;;139.40;59.20;;;;;;;-1.51;90.59;101085.63;106566;1279;22668;-58
2023/02/16 08:12:40;;;;;;;137.10;61.40;;;;;;;-1.41;90.69;101082.73;107519;1271;22603;-55
2023/02/16 08:15:12;;;;;;;135.10;60.40;;;;;;;-1.32;90.82;101083.52;106100;1274;22565;-56
2023/02/16 08:17:43;;;;;;;133.70;59.30;;;;;;;-1.23;91.15;101080.95;106554;1276;25540;-58
2023/02/16 08:20:15;;;;;;;140.60;59.50;;;;;;;-1.14;91.04;101075.45;109329;1277;22527;-58
2023/02/16 08:22:47;;;;;;;128.60;56.70;;;;;;;-1.06;91.25;101067.69;106568;1272;25532;-55
2023/02/16 08:25:18;;;;;;;136.00;61.90;;;;;;;-0.98;91.46;101069.62;106391;1272;22685;-58
2023/02/16 08:27:49;;;;;;;130.70;57.80;;;;;;;-0.89;91.36;101066.02;110101;1272;22195;-57
2023/02/16 08:30:23;;;;;;;126.20;56.90;;;;;;;-0.80;91.59;101069.20;106138;1275;24250;-55
2023/02/16 08:32:59;;;;;;;133.50;59.20;;;;;;;-0.70;91.68;101061.73;106152;1274;22925;-56
2023/02/16 08:35:31;;;;;;;130.90;59.80;;;;;;;-0.60;91.88;101057.02;106173;1257;24224;-54
2023/02/16 08:38:02;;;;;;;146.40;64.00;;;;;;;-0.52;91.95;101057.54;106274;1278;25434;-57
2023/02/16 08:40:33;;;;;;;136.80;59.40;;;;;;;-0.43;91.90;101056.00;106189;1279;24255;-56
2023/02/16 08:43:04;;;;;;;153.00;63.50;;;;;;;-0.35;92.06;101054.87;106234;1279;22537;-56
2023/02/16 08:45:34;;;;;;;146.10;64.40;;;;;;;-0.26;92.45;101056.24;106220;1279;24361;-55
2023/02/16 08:48:06;;;;;;;153.20;68.80;;;;;;;-0.16;92.57;101057.21;106137;1276;25650;-58
2023/02/16 08:50:37;;;;;;;155.60;68.20;;;;;;;-0.07;92.69;101058.19;106266;1276;22599;-54
2023/02/16 08:53:08;;;;;;;147.60;67.00;;;;;;;0.04;92.89;101061.52;106194;1276;22636;-57
2023/02/16 08:55:39;;;;;;;145.10;65.60;;;;;;;0.14;93.04;101060.91;106246;1278;24274;-58
2023/02/16 08:58:10;;;;;;;139.60;63.80;;;;;;;0.26;93.45;101053.72;106155;1271;23172;-57
2023/02/16 09:00:42;;;;;;;130.20;55.60;;;;;;;0.38;93.51;101055.63;106156;1279;24273;-56
2023/02/16 09:03:13;;;;;;;129.50;52.80;;;;;;;0.51;93.58;101062.31;106276;1277;23827;-55
2023/02/16 09:05:44;;;;;;;111.00;49.20;;;;;;;0.65;93.56;101058.46;106139;1279;22544;-58
2023/02/16 09:08:16;;;;;;;104.30;45.70;;;;;;;0.79;93.61;101063.34;106143;1279;24399;-57
2023/02/16 09:10:47;;;;;;;99.40;40.90;;;;;;;0.98;93.82;101067.19;106249;1265;22726;-57
2023/02/16 09:13:18;;;;;;;101.40;45.20;;;;;;;1.11;93.80;101069.06;106235;1278;24397;-55
2023/02/16 09:15:50;;;;;;;104.90;41.00;;;;;;;1.23;93.72;101066.84;106210;1279;25468;-56
2023/02/16 09:18:21;;;;;;;92.20;41.10;;;;;;;1.35;93.60;101064.38;106420;1265;22628;-57
2023/02/16 09:20:53;;;;;;;96.70;43.70;;;;;;;1.50;93.73;101067.64;106309;1272;22530;-56
2023/02/16 09:23:24;;;;;;;93.80;38.50;;;;;;;1.64;93.78;101065.39;106255;1277;22541;-56
2023/02/16 09:25:56;;;;;;;82.80;34.60;;;;;;;1.82;93.91;101062.42;106493;1272;24517;-56
2023/02/16 09:28:27;;;;;;;86.90;37.70;;;;;;;1.99;93.90;101062.65;106685;1265;22541;-57
2023/02/16 09:30:58;;;;;;;85.20;35.10;;;;;;;2.13;93.69;101064.30;106226;1279;24068;-55
2023/02/16 09:33:29;;;;;;;77.70;32.90;;;;;;;2.28;93.59;101066.35;106194;1278;22574;-57
2023/02/16 09:36:03;;;;;;;74.40;31.10;;;;;;;2.43;93.31;101068.38;106331;1274;25357;-58
2023/02/16 09:38:35;;;;;;;81.20;31.50;;;;;;;2.58;93.13;101069.39;106321;1268;22711;-58
2023/02/16 09:41:21;;;;;;;71.90;30.30;;;;;;;2.73;93.09;101065.02;106371;1268;25590;-57
2023/02/16 09:43:59;;;;;;;68.60;30.50;;;;;;;2.88;92.86;101057.95;106373;1277;24228;-57
2023/02/16 09:46:33;;;;;;;74.60;30.90;;;;;;;3.01;92.64;101053.58;106509;1268;22559;-57
2023/02/16 09:49:05;;;;;;;80.20;30.90;;;;;;;3.14;92.38;101052.76;106607;1279;23955;-57
2023/02/16 09:51:39;;;;;;;73.40;29.80;;;;;;;3.28;92.26;101053.00;106469;1279;24397;-57
2023/02/16 09:54:29;;;;;;;62.20;27.70;;;;;;;3.43;92.05;101049.70;106338;1274;25935;-56
2023/02/16 09:57:07;;;;;;;64.30;29.40;;;;;;;3.57;91.83;101045.98;106324;1278;22578;-57
2023/02/16 09:59:47;;;;;;;63.20;25.40;;;;;;;3.73;91.77;101047.21;106325;1274;24280;-58
2023/02/16 10:02:45;;;;;;;60.40;24.50;;;;;;;3.91;91.43;101043.91;106322;1278;25339;-55
2023/02/16 10:05:26;;;;;;;63.30;25.40;;;;;;;4.10;91.20;101047.13;106200;1277;22536;-54
2023/02/16 10:08:03;;;;;;;57.10;23.80;;;;;;;4.28;90.57;101047.52;106233;1279;22533;-55
2023/02/16 10:10:44;;;;;;;56.40;24.30;;;;;;;4.43;89.89;101046.98;106444;1279;24279;-58
2023/02/16 10:13:23;;;;;;;52.90;23.20;;;;;;;4.57;89.58;101043.29;106240;1272;25342;-57
2023/02/16 10:16:00;;;;;;;50.10;21.70;;;;;;;4.70;89.08;101039.51;106257;1279;22538;-57
2023/02/16 10:18:34;;;;;;;52.40;23.10;;;;;;;4.84;88.79;101045.13;106320;1273;22533;-57
2023/02/16 10:21:14;;;;;;;50.40;21.50;;;;;;;4.97;88.53;101041.91;106410;1264;22584;-57
2023/02/16 10:23:52;;;;;;;54.50;21.50;;;;;;;5.08;87.91;101048.28;106134;1279;25494;-56
2023/02/16 10:26:30;;;;;;;51.90;21.30;;;;;;;5.19;87.37;101050.46;106121;1273;22555;-55
2023/02/16 10:29:07;;;;;;;54.80;23.40;;;;;;;5.29;87.01;101046.25;106230;1279;22540;-58
2023/02/16 10:31:42;;;;;;;48.40;20.80;;;;;;;5.39;87.21;101051.34;106333;1277;22559;-55
2023/02/16 10:34:21;;;;;;;45.00;20.00;;;;;;;5.48;86.22;101050.30;106231;1264;25584;-55
2023/02/16 10:37:11;;;;;;;50.40;23.20;;;;;;;5.56;86.11;101049.84;106186;1279;22534;-58
2023/02/16 10:39:48;;;;;;;53.50;20.00;;;;;;;5.66;86.12;101048.14;106323;1279;25340;-56
2023/02/16 10:42:27;;;;;;;45.70;20.50;;;;;;;5.74;86.04;101049.39;106313;1273;25249;-58
2023/02/16 10:45:05;;;;;;;48.10;19.20;;;;;;;5.83;85.55;101046.93;106227;1273;22560;-56
2023/02/16 10:47:40;;;;;;;42.50;17.40;;;;;;;5.92;84.92;101044.95;106183;1273;24286;-55
2023/02/16 10:50:23;;;;;;;38.40;15.40;;;;;;;6.00;83.72;101050.15;106199;1277;23035;-62
2023/02/16 10:52:58;;;;;;;40.90;16.30;;;;;;;6.08;83.13;101047.61;106343;1264;22533;-65
2023/02/16 10:55:30;;;;;;;41.00;15.50;;;;;;;6.13;82.96;101044.58;106268;1265;22536;-70
2023/02/16 10:58:02;;;;;;;40.80;16.40;;;;;;;6.17;82.27;101046.55;106187;1279;22574;-66
2023/02/16 11:00:49;;;;;;;39.50;16.80;;;;;;;6.22;82.31;101046.18;106359;1277;24224;-66
2023/02/16 11:03:24;;;;;;;41.20;16.40;;;;;;;6.26;82.23;101038.42;106244;1278;22539;-65
2023/02/16 11:05:55;;;;;;;39.20;15.50;;;;;;;6.31;82.35;101039.55;106304;1273;22533;-59
2023/02/16 11:08:46;;;;;;;41.70;17.70;;;;;;;6.37;81.80;101031.44;106317;1274;22547;-60
2023/02/16 11:11:21;;;;;;;40.90;17.30;;;;;;;6.41;81.56;101027.84;106346;1277;23000;-60
2023/02/16 11:14:01;;;;;;;42.20;17.70;;;;;;;6.49;81.32;101030.19;106125;1279;22544;-59
2023/02/16 11:16:33;;;;;;;41.80;18.30;;;;;;;6.59;80.70;101032.96;106244;1279;22548;-59
2023/02/16 11:19:09;;;;;;;40.70;16.00;;;;;;;6.65;80.39;101034.51;106282;1280;25310;-60
2023/02/16 11:21:49;;;;;;;44.00;16.70;;;;;;;6.69;80.61;101031.13;106264;1280;24274;-60
2023/02/16 11:24:28;;;;;;;38.10;15.60;;;;;;;6.74;80.17;101025.54;106323;1277;23011;-60
2023/02/16 11:27:07;;;;;;;41.80;15.80;;;;;;;6.79;78.96;101025.09;106174;1277;22576;-60
2023/02/16 11:29:38;;;;;;;36.10;14.80;;;;;;;6.84;79.29;101028.39;106226;1279;22679;-61
2023/02/16 11:32:12;;;;;;;40.30;17.30;;;;;;;6.87;79.46;101024.59;106445;1279;25497;-62
2023/02/16 11:34:46;;;;;;;39.30;16.60;;;;;;;6.91;79.57;101027.16;106233;1280;22546;-60
2023/02/16 11:37:26;;;;;;;37.50;16.70;;;;;;;6.98;79.11;101024.30;106467;1274;24376;-60
2023/02/16 11:40:00;;;;;;;37.80;14.80;;;;;;;7.06;78.45;101027.27;106173;1280;22543;-62
2023/02/16 11:42:39;;;;;;;42.60;17.30;;;;;;;7.11;78.08;101025.21;106362;1276;25555;-60
2023/02/16 11:45:26;;;;;;;39.10;15.80;;;;;;;7.17;78.09;101023.00;106221;1268;25422;-59
2023/02/16 11:48:00;;;;;;;40.40;17.00;;;;;;;7.25;77.99;101030.23;106228;1279;22559;-59
2023/02/16 11:50:37;;;;;;;37.10;15.20;;;;;;;7.30;77.85;101028.53;106416;1280;22565;-60
2023/02/16 11:53:23;;;;;;;35.70;14.60;;;;;;;7.34;75.99;101027.95;106283;1279;22546;-60
2023/02/16 11:56:13;;;;;;;42.00;15.20;;;;;;;7.36;76.28;101030.27;106212;1279;25369;-61
2023/02/16 11:58:45;;;;;;;35.90;14.20;;;;;;;7.40;77.03;101021.61;106260;1280;24394;-60
2023/02/16 12:01:27;;;;;;;39.20;16.40;;;;;;;7.41;77.22;101019.41;106167;1274;25391;-57
2023/02/16 12:04:16;;;;;;;39.80;15.60;;;;;;;7.43;76.93;101014.52;106318;1280;22697;-59
2023/02/16 12:07:00;;;;;;;35.20;14.90;;;;;;;7.45;76.26;101017.50;106281;1280;22555;-63